Airfield :
LOGIN :

Register | Disclaimer

   EN    FR    IT 

 










Legend :    VFR   Marginal VFR   IFR   Intensive IFR   Very Intensive IFR
Visi :
Ceiling :
>= 8 km
>= 3000ft
5 to 8 km
1000 to 3000 ft
1500m to 5 km
500 to 1000 ft
800 to 1500m
200 to 500 ft
< 800m
< 200 ft
Symbols :   Thunderstorms  Fog  Heavy snow  Heavy precipitations  Wind > 20 kt
SIGMETs :     Misc.  Thunderstorms  Icing  Turbulence  Mountain Waves  Volcanic Ashes






- Airport Elevation : 295 ft
- IATA code : BWE


EDVE - Braunschweig

CURRENT METAR :
  • 290820Z 08004KT 040V120 9999 OVC019 04/03 Q1017

EXPIRED METARs :
  • 290750Z 08003KT 010V110 9999 OVC020 04/03 Q1017
  • 290720Z 07003KT 9999 BKN021 OVC029 04/02 Q1016
  • 290650Z 07003KT 040V100 9999 SCT021 OVC025 04/03 Q1016
  • 290620Z 09004KT 9999 OVC024 04/03 Q1016
  • 290550Z 09005KT 9999 OVC023 04/03 Q1015

TAF TAF EDVE
Valid from the 29 at 09:00 until the 29 at 18:00 UTC


290800Z 2909/2918 08004KT 9999 OVC015
TEMPO 2909/2915 OVC013
PROB30
TEMPO 2909/2912 4500 -RADZ BKN009
BECMG 2915/2917 OVC013
TEMPO 2916/2918 2500 -DZ BR BKN004



MET'MAP, your aeronautical weather chart ! - Copyright ORBIFLY December 2007 - Disclaimer

ORBIFLY MET'MAP TEAM :

Programming & Development : Alexandra Zaïnal
Original concept : Baudouin d'Aumeries
Technical & hardware support : Manuel Goepfert
Assistance : Marc-Olivier Méhu




SOURCES & CREDITS :

   NOAA